Главная страница
METAR-TAF:

METAR-TAF

Аэропорты :

Винница, Украина

широта: 49-14-23N, долгота: 028-36-50E, высота над уровнем моря: 974 м

Текущие метеонаблюдения

Эта сводка был подготовлена 31 минут назад, в 08:00 UTC
Ветер 4 Узел от северный
Температура 24°C
Влажность 61%
Давление 1018 hPa
Видимость 10 км и более
Нет облачности ниже 1500 м, и нет кучево-дождевой облачности

METAR: UKWW 190800Z 35002MPS CAVOK 24/16 Q1018 R31/0///65 NOSIG

Время: 11:31 (08:31 UTC)

Прогноз

Эта сводка был подготовлена 3 часа и 21 минут назад, в 05:10 UTC
Прогноз действительный с 19-го 06 UTC до 19-го 15 UTC
Ветер 2 Узел переменных направлений
Видимость 10 км и более
Отдельные облака на высоте 4000 фута
Вероятность 40% :
временами
С 19-го 08 UTC до 19-го 12 UTC
Отдельные облака на высоте 700 фута
Рассеянная облачность на высоте 1500 фута, Кучево-дождевые.
гроза, небольшой дождь

TAF: UKWW 190510Z 1906/1915 VRB01MPS 9999 SCT040 TX27/1913Z TN21/1906Z PROB40 TEMPO 1908/1912 -TSRA SCT007 BKN015CB

Метеонаблюдения и прогнозы для более 4000 аэропортов (сводки METAR и TAF).

Имеющиеся станции представлены на карте желтыми и красными точками.

Чтобы увидеть название станции, наведите на нее мышь.

Затем щелкните, чтобы увидеть метеонаблюдения и метеопрогнозы.

Управление картой: чтобы увеличить масштаб, щелкните зеленые кнопки с черным крестиком; чтобы уменьшить масштаб, щелкните зеленую кнопку с тире; для просмотра соседних карт щелкайте зеленые стрелки.


METAR-TAF: